Terminal Aerodrome Forecast
Issued by NWS

Home | Current Version | Previous Version | Text Only | Print | Product List | Glossary On
Versions: 1 2 3 4 5 6 7 8 9 10 11 12 13 14 15 16 17 18 19 20 21 22 23 24 25 26 27 28 29
000
FTAK31 PAFA 290524
TAFASC
TAF
PASC 290524Z 2906/3006 08016KT P6SM VCFG SCT012
     FM290900 08012KT 6SM BR SCT007 BKN012
     FM291200 08010KT 2SM BR BKN007 OVC012
     FM292000 08011KT P6SM SCT012=

USA.gov is the U.S. government's official web portal to all federal, state and local government web resources and services.